PWSweather.com
Personal Weather Stations
Station Observations
HVALPSUND
Hvalpsund, FarsoeDK 9640

HvalpsundFarsoeDK 9640

Lat: 56.705311, Lon: 9.203638

Elevation: 5

Station Type: Vantage Pro2

http://hvalpsundvejr.dk

Latest ConditionsUpdated 1:40:00 AM GMT+01:01 Thursday, Aug 16, 2018
Currently Today's Max Today's Min Today's Average
Temperature 65.1°F18.4°C 65.4°F18.6°C 64.8°F18.2°C 65.1°F18.4°C
Dew Point 60.8°F16.0°C 61.1°F16.2°C 60.7°F15.9°C 60.9°F16.1°C
Winds 7.8 mph S12.6 kmh S 10.2 mph -16.4 kmh - - 7.5 mph 12.1 kmh
Wind Gusts 12.0 mph19.3 kmh 17.0 mph27.4 kmh - -
Humidity 86% 87% 86% 86%
Pressure 29.90 in1012.5 mb 29.91 in1012.9 mb 29.90 in1012.5 mb -
Hour Temp Dew Point Humidity Winds Wind Gusts Pressure Precip Precip Rate Daily Precip Total
01:40 AM 65.1°F18.4°C 60.8°F16.0°C 86% 7.8 mph S12.6 kmh S 12.0 mph19.3 kmh 29.90 in1012.5 mb 0.00 in0.0 mm 0.00 in0.0 mm 0.00 in0.0 mm
01:39 AM 65.1°F18.4°C 60.8°F16.0°C 86% 8.1 mph S13.0 kmh S 12.0 mph19.3 kmh 29.90 in1012.5 mb 0.00 in0.0 mm 0.00 in0.0 mm 0.00 in0.0 mm
01:38 AM 65.0°F18.3°C 60.7°F15.9°C 86% 7.9 mph S12.7 kmh S 10.0 mph16.1 kmh 29.90 in1012.5 mb 0.00 in0.0 mm 0.00 in0.0 mm 0.00 in0.0 mm
01:37 AM 65.0°F18.3°C 60.7°F15.9°C 86% 7.5 mph S12.1 kmh S 11.0 mph17.7 kmh 29.90 in1012.5 mb 0.00 in0.0 mm 0.00 in0.0 mm 0.00 in0.0 mm
01:36 AM 65.0°F18.3°C 60.7°F15.9°C 86% 8.2 mph S13.2 kmh S 15.0 mph24.1 kmh 29.90 in1012.5 mb 0.00 in0.0 mm 0.00 in0.0 mm 0.00 in0.0 mm
01:35 AM 65.0°F18.3°C 60.7°F15.9°C 86% 9.8 mph S15.8 kmh S 15.0 mph24.1 kmh 29.90 in1012.5 mb 0.00 in0.0 mm 0.00 in0.0 mm 0.00 in0.0 mm
01:34 AM 65.0°F18.3°C 60.7°F15.9°C 86% 7.8 mph SSW12.6 kmh SSW 11.0 mph17.7 kmh 29.90 in1012.5 mb 0.00 in0.0 mm 0.00 in0.0 mm 0.00 in0.0 mm
01:33 AM 65.0°F18.3°C 60.7°F15.9°C 86% 7.3 mph S11.7 kmh S 10.0 mph16.1 kmh 29.90 in1012.5 mb 0.00 in0.0 mm 0.00 in0.0 mm 0.00 in0.0 mm
01:32 AM 65.0°F18.3°C 60.7°F15.9°C 86% 5.1 mph S8.2 kmh S 8.0 mph12.9 kmh 29.90 in1012.5 mb 0.00 in0.0 mm 0.00 in0.0 mm 0.00 in0.0 mm
01:31 AM 65.1°F18.4°C 60.8°F16.0°C 86% 5.2 mph S8.4 kmh S 8.0 mph12.9 kmh 29.90 in1012.5 mb 0.00 in0.0 mm 0.00 in0.0 mm 0.00 in0.0 mm
01:30 AM 65.0°F18.3°C 60.7°F15.9°C 86% 5.8 mph S9.3 kmh S 13.0 mph20.9 kmh 29.90 in1012.5 mb 0.00 in0.0 mm 0.00 in0.0 mm 0.00 in0.0 mm
01:29 AM 65.0°F18.3°C 60.7°F15.9°C 86% 9.2 mph S14.8 kmh S 17.0 mph27.4 kmh 29.90 in1012.5 mb 0.00 in0.0 mm 0.00 in0.0 mm 0.00 in0.0 mm
01:28 AM 65.0°F18.3°C 60.7°F15.9°C 86% 9.6 mph S15.4 kmh S 17.0 mph27.4 kmh 29.90 in1012.5 mb 0.00 in0.0 mm 0.00 in0.0 mm 0.00 in0.0 mm
01:27 AM 65.1°F18.4°C 60.8°F16.0°C 86% 8.7 mph SSW14.0 kmh SSW 13.0 mph20.9 kmh 29.90 in1012.5 mb 0.00 in0.0 mm 0.00 in0.0 mm 0.00 in0.0 mm
01:26 AM 65.0°F18.3°C 60.7°F15.9°C 86% 8.7 mph S14.0 kmh S 16.0 mph25.7 kmh 29.90 in1012.5 mb 0.00 in0.0 mm 0.00 in0.0 mm 0.00 in0.0 mm
01:25 AM 65.0°F18.3°C 60.7°F15.9°C 86% 10.2 mph S16.4 kmh S 16.0 mph25.7 kmh 29.90 in1012.5 mb 0.00 in0.0 mm 0.00 in0.0 mm 0.00 in0.0 mm
01:24 AM 65.1°F18.4°C 60.8°F16.0°C 86% 8.9 mph S14.3 kmh S 14.0 mph22.5 kmh 29.90 in1012.5 mb 0.00 in0.0 mm 0.00 in0.0 mm 0.00 in0.0 mm
01:23 AM 65.0°F18.3°C 60.7°F15.9°C 86% 8.2 mph S13.2 kmh S 14.0 mph22.5 kmh 29.91 in1012.9 mb 0.00 in0.0 mm 0.00 in0.0 mm 0.00 in0.0 mm
01:22 AM 65.0°F18.3°C 60.7°F15.9°C 86% 8.8 mph S14.2 kmh S 14.0 mph22.5 kmh 29.90 in1012.5 mb 0.00 in0.0 mm 0.00 in0.0 mm 0.00 in0.0 mm
01:21 AM 65.1°F18.4°C 60.8°F16.0°C 86% 8.7 mph S14.0 kmh S 12.0 mph19.3 kmh 29.91 in1012.9 mb 0.00 in0.0 mm 0.00 in0.0 mm 0.00 in0.0 mm
01:20 AM 65.1°F18.4°C 60.8°F16.0°C 86% 9.0 mph S14.5 kmh S 12.0 mph19.3 kmh 29.91 in1012.9 mb 0.00 in0.0 mm 0.00 in0.0 mm 0.00 in0.0 mm
01:19 AM 65.1°F18.4°C 60.8°F16.0°C 86% 8.2 mph S13.2 kmh S 13.0 mph20.9 kmh 29.91 in1012.9 mb 0.00 in0.0 mm 0.00 in0.0 mm 0.00 in0.0 mm
01:18 AM 65.0°F18.3°C 60.7°F15.9°C 86% 7.3 mph S11.7 kmh S 13.0 mph20.9 kmh 29.91 in1012.9 mb 0.00 in0.0 mm 0.00 in0.0 mm 0.00 in0.0 mm
01:17 AM 65.1°F18.4°C 60.8°F16.0°C 86% 8.7 mph S14.0 kmh S 13.0 mph20.9 kmh 29.90 in1012.5 mb 0.00 in0.0 mm 0.00 in0.0 mm 0.00 in0.0 mm
01:16 AM 65.1°F18.4°C 60.8°F16.0°C 86% 9.3 mph S15.0 kmh S 16.0 mph25.7 kmh 29.91 in1012.9 mb 0.00 in0.0 mm 0.00 in0.0 mm 0.00 in0.0 mm
01:15 AM 65.1°F18.4°C 60.8°F16.0°C 86% 9.8 mph S15.8 kmh S 16.0 mph25.7 kmh 29.91 in1012.9 mb 0.00 in0.0 mm 0.00 in0.0 mm 0.00 in0.0 mm
01:14 AM 65.1°F18.4°C 60.8°F16.0°C 86% 8.2 mph S13.2 kmh S 13.0 mph20.9 kmh 29.91 in1012.9 mb 0.00 in0.0 mm 0.00 in0.0 mm 0.00 in0.0 mm
01:13 AM 65.1°F18.4°C 60.8°F16.0°C 86% 8.6 mph S13.8 kmh S 13.0 mph20.9 kmh 29.91 in1012.9 mb 0.00 in0.0 mm 0.00 in0.0 mm 0.00 in0.0 mm
01:12 AM 65.1°F18.4°C 60.8°F16.0°C 86% 8.8 mph S14.2 kmh S 15.0 mph24.1 kmh 29.91 in1012.9 mb 0.00 in0.0 mm 0.00 in0.0 mm 0.00 in0.0 mm
01:11 AM 65.1°F18.4°C 60.8°F16.0°C 86% 9.3 mph S15.0 kmh S 15.0 mph24.1 kmh 29.91 in1012.9 mb 0.00 in0.0 mm 0.00 in0.0 mm 0.00 in0.0 mm
01:10 AM 65.2°F18.4°C 60.9°F16.1°C 86% 6.7 mph S10.8 kmh S 12.0 mph19.3 kmh 29.91 in1012.9 mb 0.00 in0.0 mm 0.00 in0.0 mm 0.00 in0.0 mm
01:09 AM 65.1°F18.4°C 60.8°F16.0°C 86% 8.4 mph S13.5 kmh S 12.0 mph19.3 kmh 29.91 in1012.9 mb 0.00 in0.0 mm 0.00 in0.0 mm 0.00 in0.0 mm
01:08 AM 65.1°F18.4°C 60.8°F16.0°C 86% 7.9 mph S12.7 kmh S 12.0 mph19.3 kmh 29.91 in1012.9 mb 0.00 in0.0 mm 0.00 in0.0 mm 0.00 in0.0 mm
01:07 AM 65.2°F18.4°C 60.9°F16.1°C 86% 9.0 mph S14.5 kmh S 12.0 mph19.3 kmh 29.91 in1012.9 mb 0.00 in0.0 mm 0.00 in0.0 mm 0.00 in0.0 mm
01:06 AM 65.1°F18.4°C 60.8°F16.0°C 86% 5.4 mph S8.7 kmh S 10.0 mph16.1 kmh 29.91 in1012.9 mb 0.00 in0.0 mm 0.00 in0.0 mm 0.00 in0.0 mm
01:05 AM 65.2°F18.4°C 60.9°F16.1°C 86% 5.5 mph S8.9 kmh S 15.0 mph24.1 kmh 29.90 in1012.5 mb 0.00 in0.0 mm 0.00 in0.0 mm 0.00 in0.0 mm
01:04 AM 65.1°F18.4°C 60.8°F16.0°C 86% 8.8 mph S14.2 kmh S 15.0 mph24.1 kmh 29.90 in1012.5 mb 0.00 in0.0 mm 0.00 in0.0 mm 0.00 in0.0 mm
01:03 AM 65.1°F18.4°C 60.8°F16.0°C 86% 7.6 mph S12.2 kmh S 11.0 mph17.7 kmh 29.91 in1012.9 mb 0.00 in0.0 mm 0.00 in0.0 mm 0.00 in0.0 mm
01:02 AM 65.1°F18.4°C 60.8°F16.0°C 86% 5.2 mph S8.4 kmh S 7.0 mph11.3 kmh 29.91 in1012.9 mb 0.00 in0.0 mm 0.00 in0.0 mm 0.00 in0.0 mm
01:01 AM 65.1°F18.4°C 60.8°F16.0°C 86% 5.2 mph S8.4 kmh S 9.0 mph14.5 kmh 29.91 in1012.9 mb 0.00 in0.0 mm 0.00 in0.0 mm 0.00 in0.0 mm
01:00 AM 65.1°F18.4°C 60.8°F16.0°C 86% 5.6 mph S9.0 kmh S 10.0 mph16.1 kmh 29.90 in1012.5 mb 0.00 in0.0 mm 0.00 in0.0 mm 0.00 in0.0 mm
12:59 AM 65.1°F18.4°C 61.1°F16.2°C 87% 8.1 mph S13.0 kmh S 13.0 mph20.9 kmh 29.91 in1012.9 mb 0.00 in0.0 mm 0.00 in0.0 mm 0.00 in0.0 mm
12:58 AM 65.1°F18.4°C 61.1°F16.2°C 87% 8.3 mph S13.4 kmh S 13.0 mph20.9 kmh 29.91 in1012.9 mb 0.00 in0.0 mm 0.00 in0.0 mm 0.00 in0.0 mm
12:57 AM 65.1°F18.4°C 61.1°F16.2°C 87% 8.0 mph S12.9 kmh S 15.0 mph24.1 kmh 29.90 in1012.5 mb 0.00 in0.0 mm 0.00 in0.0 mm 0.00 in0.0 mm
12:56 AM 65.0°F18.3°C 61.0°F16.1°C 87% 8.3 mph S13.4 kmh S 15.0 mph24.1 kmh 29.91 in1012.9 mb 0.00 in0.0 mm 0.00 in0.0 mm 0.00 in0.0 mm
12:55 AM 65.1°F18.4°C 61.1°F16.2°C 87% 8.8 mph S14.2 kmh S 15.0 mph24.1 kmh 29.91 in1012.9 mb 0.00 in0.0 mm 0.00 in0.0 mm 0.00 in0.0 mm
12:54 AM 65.0°F18.3°C 61.0°F16.1°C 87% 10.1 mph S16.3 kmh S 15.0 mph24.1 kmh 29.91 in1012.9 mb 0.00 in0.0 mm 0.00 in0.0 mm 0.00 in0.0 mm
12:53 AM 65.0°F18.3°C 61.0°F16.1°C 87% 7.5 mph S12.1 kmh S 12.0 mph19.3 kmh 29.91 in1012.9 mb 0.00 in0.0 mm 0.00 in0.0 mm 0.00 in0.0 mm
12:52 AM 65.0°F18.3°C 61.0°F16.1°C 87% 5.4 mph S8.7 kmh S 12.0 mph19.3 kmh 29.91 in1012.9 mb 0.00 in0.0 mm 0.00 in0.0 mm 0.00 in0.0 mm
12:51 AM 65.0°F18.3°C 61.0°F16.1°C 87% 8.4 mph S13.5 kmh S 12.0 mph19.3 kmh 29.91 in1012.9 mb 0.00 in0.0 mm 0.00 in0.0 mm 0.00 in0.0 mm
12:50 AM 65.0°F18.3°C 61.0°F16.1°C 87% 6.1 mph S9.8 kmh S 10.0 mph16.1 kmh 29.91 in1012.9 mb 0.00 in0.0 mm 0.00 in0.0 mm 0.00 in0.0 mm
12:49 AM 65.0°F18.3°C 61.0°F16.1°C 87% 6.7 mph S10.8 kmh S 9.0 mph14.5 kmh 29.91 in1012.9 mb 0.00 in0.0 mm 0.00 in0.0 mm 0.00 in0.0 mm
12:48 AM 65.0°F18.3°C 61.0°F16.1°C 87% 5.9 mph SSE9.5 kmh SSE 9.0 mph14.5 kmh 29.91 in1012.9 mb 0.00 in0.0 mm 0.00 in0.0 mm 0.00 in0.0 mm
12:47 AM 65.0°F18.3°C 61.0°F16.1°C 87% 6.2 mph S10.0 kmh S 10.0 mph16.1 kmh 29.91 in1012.9 mb 0.00 in0.0 mm 0.00 in0.0 mm 0.00 in0.0 mm
12:46 AM 65.0°F18.3°C 61.0°F16.1°C 87% 7.5 mph S12.1 kmh S 14.0 mph22.5 kmh 29.91 in1012.9 mb 0.00 in0.0 mm 0.00 in0.0 mm 0.00 in0.0 mm
12:45 AM 65.0°F18.3°C 61.0°F16.1°C 87% 9.4 mph S15.1 kmh S 14.0 mph22.5 kmh 29.91 in1012.9 mb 0.00 in0.0 mm 0.00 in0.0 mm 0.00 in0.0 mm
12:44 AM 65.0°F18.3°C 61.0°F16.1°C 87% 6.7 mph S10.8 kmh S 12.0 mph19.3 kmh 29.91 in1012.9 mb 0.00 in0.0 mm 0.00 in0.0 mm 0.00 in0.0 mm
12:43 AM 65.0°F18.3°C 61.0°F16.1°C 87% 6.7 mph SSE10.8 kmh SSE 10.0 mph16.1 kmh 29.91 in1012.9 mb 0.00 in0.0 mm 0.00 in0.0 mm 0.00 in0.0 mm
12:42 AM 65.0°F18.3°C 61.0°F16.1°C 87% 8.0 mph S12.9 kmh S 13.0 mph20.9 kmh 29.91 in1012.9 mb 0.00 in0.0 mm 0.00 in0.0 mm 0.00 in0.0 mm
12:41 AM 65.0°F18.3°C 61.0°F16.1°C 87% 8.1 mph S13.0 kmh S 13.0 mph20.9 kmh 29.91 in1012.9 mb 0.00 in0.0 mm 0.00 in0.0 mm 0.00 in0.0 mm
12:40 AM 64.9°F18.3°C 60.9°F16.1°C 87% 8.4 mph S13.5 kmh S 13.0 mph20.9 kmh 29.91 in1012.9 mb 0.00 in0.0 mm 0.00 in0.0 mm 0.00 in0.0 mm
12:39 AM 64.9°F18.3°C 60.9°F16.1°C 87% 9.4 mph S15.1 kmh S 13.0 mph20.9 kmh 29.91 in1012.9 mb 0.00 in0.0 mm 0.00 in0.0 mm 0.00 in0.0 mm
12:38 AM 64.9°F18.3°C 60.9°F16.1°C 87% 7.8 mph S12.6 kmh S 11.0 mph17.7 kmh 29.91 in1012.9 mb 0.00 in0.0 mm 0.00 in0.0 mm 0.00 in0.0 mm
12:37 AM 64.9°F18.3°C 60.9°F16.1°C 87% 7.7 mph S12.4 kmh S 13.0 mph20.9 kmh 29.91 in1012.9 mb 0.00 in0.0 mm 0.00 in0.0 mm 0.00 in0.0 mm
12:36 AM 64.9°F18.3°C 60.9°F16.1°C 87% 9.0 mph S14.5 kmh S 13.0 mph20.9 kmh 29.91 in1012.9 mb 0.00 in0.0 mm 0.00 in0.0 mm 0.00 in0.0 mm
12:35 AM 64.9°F18.3°C 60.9°F16.1°C 87% 6.6 mph S10.6 kmh S 11.0 mph17.7 kmh 29.91 in1012.9 mb 0.00 in0.0 mm 0.00 in0.0 mm 0.00 in0.0 mm
12:34 AM 64.9°F18.3°C 60.9°F16.1°C 87% 8.3 mph S13.4 kmh S 11.0 mph17.7 kmh 29.91 in1012.9 mb 0.00 in0.0 mm 0.00 in0.0 mm 0.00 in0.0 mm
12:33 AM 64.9°F18.3°C 60.9°F16.1°C 87% 5.7 mph SSE9.2 kmh SSE 10.0 mph16.1 kmh 29.91 in1012.9 mb 0.00 in0.0 mm 0.00 in0.0 mm 0.00 in0.0 mm
12:32 AM 64.9°F18.3°C 60.9°F16.1°C 87% 6.8 mph S10.9 kmh S 10.0 mph16.1 kmh 29.91 in1012.9 mb 0.00 in0.0 mm 0.00 in0.0 mm 0.00 in0.0 mm
12:31 AM 64.9°F18.3°C 60.9°F16.1°C 87% 7.0 mph S11.3 kmh S 15.0 mph24.1 kmh 29.91 in1012.9 mb 0.00 in0.0 mm 0.00 in0.0 mm 0.00 in0.0 mm
12:30 AM 64.9°F18.3°C 60.9°F16.1°C 87% 8.4 mph S13.5 kmh S 15.0 mph24.1 kmh 29.91 in1012.9 mb 0.00 in0.0 mm 0.00 in0.0 mm 0.00 in0.0 mm
12:29 AM 64.9°F18.3°C 60.9°F16.1°C 87% 5.3 mph S8.5 kmh S 9.0 mph14.5 kmh 29.91 in1012.9 mb 0.00 in0.0 mm 0.00 in0.0 mm 0.00 in0.0 mm
12:28 AM 64.9°F18.3°C 60.9°F16.1°C 87% 5.9 mph S9.5 kmh S 11.0 mph17.7 kmh 29.91 in1012.9 mb 0.00 in0.0 mm 0.00 in0.0 mm 0.00 in0.0 mm
12:27 AM 64.9°F18.3°C 60.9°F16.1°C 87% 8.1 mph S13.0 kmh S 11.0 mph17.7 kmh 29.91 in1012.9 mb 0.00 in0.0 mm 0.00 in0.0 mm 0.00 in0.0 mm
12:26 AM 64.8°F18.2°C 60.8°F16.0°C 87% 4.9 mph S7.9 kmh S 8.0 mph12.9 kmh 29.91 in1012.9 mb 0.00 in0.0 mm 0.00 in0.0 mm 0.00 in0.0 mm
12:25 AM 64.9°F18.3°C 60.9°F16.1°C 87% 4.7 mph S7.6 kmh S 12.0 mph19.3 kmh 29.91 in1012.9 mb 0.00 in0.0 mm 0.00 in0.0 mm 0.00 in0.0 mm
12:24 AM 64.9°F18.3°C 60.9°F16.1°C 87% 7.3 mph S11.7 kmh S 13.0 mph20.9 kmh 29.91 in1012.9 mb 0.00 in0.0 mm 0.00 in0.0 mm 0.00 in0.0 mm
12:23 AM 64.9°F18.3°C 60.9°F16.1°C 87% 8.6 mph S13.8 kmh S 13.0 mph20.9 kmh 29.91 in1012.9 mb 0.00 in0.0 mm 0.00 in0.0 mm 0.00 in0.0 mm
12:22 AM 64.9°F18.3°C 60.9°F16.1°C 87% 6.0 mph S9.7 kmh S 9.0 mph14.5 kmh 29.91 in1012.9 mb 0.00 in0.0 mm 0.00 in0.0 mm 0.00 in0.0 mm
12:21 AM 64.9°F18.3°C 60.9°F16.1°C 87% 5.7 mph S9.2 kmh S 10.0 mph16.1 kmh 29.91 in1012.9 mb 0.00 in0.0 mm 0.00 in0.0 mm 0.00 in0.0 mm
12:20 AM 64.9°F18.3°C 60.9°F16.1°C 87% 7.4 mph S11.9 kmh S 10.0 mph16.1 kmh 29.91 in1012.9 mb 0.00 in0.0 mm 0.00 in0.0 mm 0.00 in0.0 mm
12:19 AM 65.0°F18.3°C 61.0°F16.1°C 87% 7.2 mph SSE11.6 kmh SSE 12.0 mph19.3 kmh 29.91 in1012.9 mb 0.00 in0.0 mm 0.00 in0.0 mm 0.00 in0.0 mm
12:18 AM 65.0°F18.3°C 60.7°F15.9°C 86% 8.4 mph S13.5 kmh S 12.0 mph19.3 kmh 29.91 in1012.9 mb 0.00 in0.0 mm 0.00 in0.0 mm 0.00 in0.0 mm
12:17 AM 65.0°F18.3°C 60.7°F15.9°C 86% 8.5 mph S13.7 kmh S 11.0 mph17.7 kmh 29.91 in1012.9 mb 0.00 in0.0 mm 0.00 in0.0 mm 0.00 in0.0 mm
12:16 AM 65.1°F18.4°C 60.8°F16.0°C 86% 8.0 mph S12.9 kmh S 11.0 mph17.7 kmh 29.91 in1012.9 mb 0.00 in0.0 mm 0.00 in0.0 mm 0.00 in0.0 mm
12:15 AM 65.1°F18.4°C 60.8°F16.0°C 86% 5.4 mph S8.7 kmh S 11.0 mph17.7 kmh 29.91 in1012.9 mb 0.00 in0.0 mm 0.00 in0.0 mm 0.00 in0.0 mm
12:14 AM 65.1°F18.4°C 60.8°F16.0°C 86% 7.6 mph S12.2 kmh S 11.0 mph17.7 kmh 29.91 in1012.9 mb 0.00 in0.0 mm 0.00 in0.0 mm 0.00 in0.0 mm
12:13 AM 65.2°F18.4°C 60.9°F16.1°C 86% 7.3 mph S11.7 kmh S 11.0 mph17.7 kmh 29.91 in1012.9 mb 0.00 in0.0 mm 0.00 in0.0 mm 0.00 in0.0 mm
12:12 AM 65.2°F18.4°C 60.9°F16.1°C 86% 6.0 mph S9.7 kmh S 9.0 mph14.5 kmh 29.91 in1012.9 mb 0.00 in0.0 mm 0.00 in0.0 mm 0.00 in0.0 mm
12:11 AM 65.2°F18.4°C 60.9°F16.1°C 86% 7.0 mph S11.3 kmh S 9.0 mph14.5 kmh 29.91 in1012.9 mb 0.00 in0.0 mm 0.00 in0.0 mm 0.00 in0.0 mm
12:10 AM 65.2°F18.4°C 60.9°F16.1°C 86% 6.2 mph S10.0 kmh S 9.0 mph14.5 kmh 29.91 in1012.9 mb 0.00 in0.0 mm 0.00 in0.0 mm 0.00 in0.0 mm
12:09 AM 65.2°F18.4°C 60.9°F16.1°C 86% 6.5 mph S10.5 kmh S 9.0 mph14.5 kmh 29.91 in1012.9 mb 0.00 in0.0 mm 0.00 in0.0 mm 0.00 in0.0 mm
12:08 AM 65.3°F18.5°C 61.0°F16.1°C 86% 7.1 mph SSE11.4 kmh SSE 10.0 mph16.1 kmh 29.91 in1012.9 mb 0.00 in0.0 mm 0.00 in0.0 mm 0.00 in0.0 mm
12:07 AM 65.3°F18.5°C 61.0°F16.1°C 86% 8.4 mph S13.5 kmh S 10.0 mph16.1 kmh 29.91 in1012.9 mb 0.00 in0.0 mm 0.00 in0.0 mm 0.00 in0.0 mm
12:06 AM 65.3°F18.5°C 61.0°F16.1°C 86% 6.3 mph S10.1 kmh S 9.0 mph14.5 kmh 29.91 in1012.9 mb 0.00 in0.0 mm 0.00 in0.0 mm 0.00 in0.0 mm
12:05 AM 65.4°F18.6°C 61.1°F16.2°C 86% 7.1 mph S11.4 kmh S 11.0 mph17.7 kmh 29.91 in1012.9 mb 0.00 in0.0 mm 0.00 in0.0 mm 0.00 in0.0 mm
12:04 AM 65.4°F18.6°C 61.1°F16.2°C 86% 6.3 mph S10.1 kmh S 11.0 mph17.7 kmh 29.91 in1012.9 mb 0.00 in0.0 mm 0.00 in0.0 mm 0.00 in0.0 mm
12:03 AM 65.3°F18.5°C 61.0°F16.1°C 86% 6.9 mph S11.1 kmh S 11.0 mph17.7 kmh 29.91 in1012.9 mb 0.00 in0.0 mm 0.00 in0.0 mm 0.00 in0.0 mm
12:02 AM 65.4°F18.6°C 61.1°F16.2°C 86% 7.4 mph S11.9 kmh S 11.0 mph17.7 kmh 29.91 in1012.9 mb 0.00 in0.0 mm 0.00 in0.0 mm 0.00 in0.0 mm
12:01 AM 65.4°F18.6°C 61.1°F16.2°C 86% 5.2 mph S8.4 kmh S 12.0 mph19.3 kmh 29.91 in1012.9 mb 0.00 in0.0 mm 0.00 in0.0 mm 0.00 in0.0 mm
12:00 AM 65.4°F18.6°C 61.1°F16.2°C 86% 7.5 mph S12.1 kmh S 12.0 mph19.3 kmh 29.91 in1012.9 mb 0.00 in0.0 mm 0.00 in0.0 mm 0.00 in0.0 mm